createdAt,value
2023-12-20T00:00:06.258Z,94504.00
2023-12-20T00:01:06.284Z,94503.00
2023-12-20T00:02:06.331Z,94500.00
2023-12-20T00:03:06.279Z,94497.00
2023-12-20T00:04:06.323Z,94498.00
2023-12-20T00:05:06.288Z,94498.00
2023-12-20T00:06:06.250Z,94498.00
2023-12-20T00:07:06.329Z,94498.00
2023-12-20T00:08:06.401Z,94496.00
2023-12-20T00:09:06.285Z,94497.00
2023-12-20T00:10:06.370Z,94496.00
2023-12-20T00:11:06.265Z,94493.00
2023-12-20T00:12:06.301Z,94492.00
2023-12-20T00:13:06.269Z,94489.00
2023-12-20T00:14:06.284Z,94486.00
2023-12-20T00:15:06.265Z,94486.00
2023-12-20T00:16:06.324Z,94486.00
2023-12-20T00:17:06.279Z,94488.00
2023-12-20T00:18:06.381Z,94484.00
2023-12-20T00:19:06.363Z,94482.00
2023-12-20T00:20:06.406Z,94483.00
2023-12-20T00:21:06.286Z,94479.00
2023-12-20T00:22:06.344Z,94479.00
2023-12-20T00:23:06.293Z,94477.00
2023-12-20T00:24:06.288Z,94476.00
2023-12-20T00:25:06.321Z,94475.00
2023-12-20T00:26:06.304Z,94479.00
2023-12-20T00:27:06.285Z,94477.00
2023-12-20T00:28:06.328Z,94479.00
2023-12-20T00:29:06.295Z,94478.00
2023-12-20T00:30:06.347Z,94476.00
2023-12-20T00:31:06.623Z,94475.00
2023-12-20T00:32:06.307Z,94474.00
2023-12-20T00:33:06.386Z,94476.00
2023-12-20T00:34:06.393Z,94475.00
2023-12-20T00:35:06.309Z,94475.00
2023-12-20T00:36:06.330Z,94473.00
2023-12-20T00:37:28.655Z,94472.00
2023-12-20T00:38:06.423Z,94469.00
2023-12-20T00:39:06.374Z,94468.00
2023-12-20T00:40:06.446Z,94468.00
2023-12-20T00:41:06.371Z,94468.00
2023-12-20T04:39:40.324Z,94283.00
2023-12-20T04:40:40.277Z,94289.00
2023-12-20T04:41:40.262Z,94292.00
2023-12-20T04:42:40.310Z,94293.00
2023-12-20T04:43:40.268Z,94294.00
2023-12-20T04:44:40.289Z,94296.00
2023-12-20T04:45:40.281Z,94296.00
2023-12-20T04:46:40.264Z,94295.00
2023-12-20T04:47:40.299Z,94296.00
2023-12-20T04:48:40.355Z,94302.00
2023-12-20T04:49:40.350Z,94302.00
2023-12-20T04:50:40.279Z,94304.00
2023-12-20T04:51:40.292Z,94300.00
2023-12-20T04:52:40.311Z,94299.00
2023-12-20T04:53:40.293Z,94297.00
2023-12-20T04:54:42.618Z,94298.00
2023-12-20T04:55:40.430Z,94301.00
2023-12-20T04:56:40.294Z,94304.00
2023-12-20T04:57:40.304Z,94308.00
2023-12-20T04:58:40.327Z,94306.00
2023-12-20T04:59:40.297Z,94306.00
2023-12-20T05:00:40.435Z,94301.00
2023-12-20T05:01:40.384Z,94305.00
2023-12-20T05:02:40.307Z,94311.00
2023-12-20T05:03:40.332Z,94310.00
2023-12-20T05:04:40.305Z,94310.00
2023-12-20T05:05:40.408Z,94316.00
2023-12-20T05:06:40.382Z,94324.00
2023-12-20T05:07:40.437Z,94326.00
2023-12-20T05:08:40.297Z,94320.00
2023-12-20T05:09:40.364Z,94318.00
2023-12-20T05:10:40.321Z,94319.00
2023-12-20T05:11:40.316Z,94326.00
2023-12-20T05:12:40.345Z,94332.00
2023-12-20T05:14:40.309Z,94342.00
2023-12-20T05:15:40.345Z,94348.00
2023-12-20T05:16:40.327Z,94356.00
2023-12-20T05:17:40.389Z,94358.00
2023-12-20T05:18:40.394Z,94358.00
2023-12-20T05:19:40.442Z,94356.00
2023-12-20T05:20:40.334Z,94362.00
2023-12-20T05:21:40.340Z,94368.00
2023-12-20T05:22:40.322Z,94372.00
2023-12-20T05:23:40.326Z,94374.00
2023-12-20T05:24:40.372Z,94375.00
2023-12-20T05:25:40.360Z,94379.00
2023-12-20T05:26:40.398Z,94384.00
2023-12-20T05:27:40.498Z,94379.00
2023-12-20T05:28:40.493Z,94380.00
2023-12-20T05:29:40.539Z,94385.00
2023-12-20T05:30:40.637Z,94388.00
2023-12-20T05:31:40.623Z,94393.00
2023-12-20T05:32:40.788Z,94396.00
2023-12-20T05:33:40.845Z,94400.00
2023-12-20T05:34:40.818Z,94399.00
2023-12-20T05:35:40.790Z,94399.00
2023-12-20T05:36:40.825Z,94399.00
2023-12-20T05:37:40.874Z,94400.00
2023-12-20T05:38:40.910Z,94401.00
2023-12-20T05:39:40.985Z,94403.00
2023-12-20T05:40:40.994Z,94403.00
2023-12-20T05:41:41.019Z,94404.00
2023-12-20T05:42:41.093Z,94407.00
2023-12-20T05:43:41.129Z,94412.00
2023-12-20T05:44:41.146Z,94415.00
2023-12-20T05:45:41.227Z,94421.00
2023-12-20T05:46:41.199Z,94425.00
2023-12-20T05:47:41.269Z,94426.00
2023-12-20T05:48:41.368Z,94424.00
2023-12-20T05:49:41.358Z,94417.00
2023-12-20T05:50:41.377Z,94414.00
2023-12-20T05:51:41.436Z,94409.00
2023-12-20T05:52:41.471Z,94400.00
2023-12-20T05:53:41.482Z,94391.00
2023-12-20T05:54:41.595Z,94387.00
2023-12-20T05:55:41.589Z,94389.00
2023-12-20T05:56:41.608Z,94393.00
2023-12-20T05:57:41.692Z,94399.00
2023-12-20T05:58:41.730Z,94404.00
2023-12-20T05:59:41.778Z,94408.00
2023-12-20T06:00:41.998Z,94408.00
2023-12-20T06:01:41.943Z,94402.00
2023-12-20T06:02:41.948Z,94402.00
2023-12-20T06:03:41.984Z,94410.00
2023-12-20T06:04:42.098Z,94412.00
2023-12-20T06:05:41.991Z,94416.00
2023-12-20T06:06:42.055Z,94415.00
2023-12-20T06:07:42.157Z,94413.00
2023-12-20T06:08:42.084Z,94413.00
2023-12-20T06:09:42.172Z,94414.00
2023-12-20T06:10:42.219Z,94419.00
2023-12-20T06:11:42.252Z,94425.00
2023-12-20T06:12:42.355Z,94427.00
2023-12-20T06:13:42.359Z,94427.00
2023-12-20T06:14:42.407Z,94427.00
2023-12-20T06:15:42.576Z,94422.00
2023-12-20T06:16:42.525Z,94418.00
2023-12-20T06:17:42.795Z,94412.00
2023-12-20T06:18:42.748Z,94411.00
2023-12-20T06:19:42.853Z,94411.00
2023-12-20T06:20:42.826Z,94413.00
2023-12-20T06:21:45.239Z,94417.00
2023-12-20T06:22:42.855Z,94419.00
2023-12-20T06:23:42.868Z,94411.00
2023-12-20T06:24:42.935Z,94409.00
2023-12-20T06:25:42.882Z,94407.00
2023-12-20T06:26:42.878Z,94409.00
2023-12-20T06:27:42.957Z,94408.00
2023-12-20T06:28:42.909Z,94405.00
2023-12-20T06:29:42.975Z,94401.00
2023-12-20T06:30:42.944Z,94399.00
2023-12-20T06:31:43.059Z,94397.00
2023-12-20T06:32:42.903Z,94397.00
2023-12-20T06:33:42.927Z,94397.00
2023-12-20T06:34:42.991Z,94397.00
2023-12-20T06:35:42.884Z,94401.00
2023-12-20T06:36:42.976Z,94401.00
2023-12-20T06:37:43.065Z,94407.00
2023-12-20T06:38:42.866Z,94409.00
2023-12-20T06:39:42.899Z,94406.00
2023-12-20T06:40:42.942Z,94408.00
2023-12-20T06:41:43.008Z,94411.00
2023-12-20T06:42:47.574Z,94414.00
2023-12-20T06:43:49.925Z,94417.00
2023-12-20T06:44:43.907Z,94419.00
2023-12-20T06:45:42.994Z,94419.00
2023-12-20T06:46:42.896Z,94415.00
2023-12-20T06:47:43.061Z,94413.00
2023-12-20T06:48:43.056Z,94414.00
2023-12-20T06:49:43.026Z,94418.00
2023-12-20T06:50:42.895Z,94419.00
2023-12-20T06:52:04.997Z,94423.00
2023-12-20T06:52:42.909Z,94427.00
2023-12-20T06:53:42.884Z,94428.00
2023-12-20T06:54:42.925Z,94428.00
2023-12-20T06:55:42.896Z,94433.00
2023-12-20T06:56:43.004Z,94436.00
2023-12-20T06:57:43.022Z,94439.00
2023-12-20T06:58:43.441Z,94441.00
2023-12-20T06:59:43.016Z,94442.00
2023-12-20T07:00:42.977Z,94442.00
2023-12-20T07:01:42.993Z,94447.00
2023-12-20T07:02:42.917Z,94452.00
2023-12-20T07:03:43.026Z,94453.00
2023-12-20T07:04:42.997Z,94456.00
2023-12-20T07:05:42.897Z,94456.00
2023-12-20T07:06:42.973Z,94460.00
2023-12-20T07:07:43.032Z,94461.00
2023-12-20T07:08:42.939Z,94466.00
2023-12-20T07:09:43.022Z,94467.00
2023-12-20T07:10:42.905Z,94470.00
2023-12-20T07:11:42.912Z,94475.00
2023-12-20T07:12:42.959Z,94477.00
2023-12-20T07:13:42.909Z,94478.00
2023-12-20T07:14:42.933Z,94479.00
2023-12-20T07:15:44.901Z,94481.00
2023-12-20T07:16:42.950Z,94482.00
2023-12-20T07:17:43.040Z,94479.00
2023-12-20T07:18:43.041Z,94480.00
2023-12-20T07:19:43.044Z,94477.00
2023-12-20T07:20:42.938Z,94479.00
2023-12-20T07:21:43.031Z,94480.00
2023-12-20T07:22:43.016Z,94485.00
2023-12-20T07:23:43.072Z,94486.00
2023-12-20T07:24:43.268Z,94489.00
2023-12-20T07:25:43.189Z,94486.00
2023-12-20T07:26:43.305Z,94485.00
2023-12-20T07:27:45.533Z,94488.00
2023-12-20T07:28:43.517Z,94492.00
2023-12-20T07:29:43.582Z,94497.00
2023-12-20T07:30:43.715Z,94493.00
2023-12-20T07:31:43.644Z,94490.00
2023-12-20T07:32:43.719Z,94490.00
2023-12-20T07:33:43.877Z,94488.00
2023-12-20T07:34:44.834Z,94488.00
2023-12-20T07:35:44.031Z,94491.00
2023-12-20T07:36:43.973Z,94494.00
2023-12-20T07:37:44.264Z,94498.00
2023-12-20T07:38:44.018Z,94500.00
2023-12-20T07:39:44.256Z,94500.00
2023-12-20T07:40:44.104Z,94501.00
2023-12-20T07:41:45.750Z,94502.00
2023-12-20T07:42:44.167Z,94509.00
2023-12-20T07:43:44.171Z,94514.00
2023-12-20T07:44:44.223Z,94509.00
2023-12-20T07:45:44.182Z,94506.00
2023-12-20T07:46:44.177Z,94503.00
2023-12-20T07:47:44.412Z,94504.00
2023-12-20T07:48:46.210Z,94502.00
2023-12-20T07:49:44.313Z,94504.00
2023-12-20T07:50:44.159Z,94507.00
2023-12-20T07:51:44.283Z,94510.00
2023-12-20T07:52:44.147Z,94507.00
2023-12-20T07:53:44.192Z,94513.00
2023-12-20T07:54:44.405Z,94508.00
2023-12-20T07:55:44.239Z,94504.00
2023-12-20T07:56:44.240Z,94499.00
2023-12-20T07:57:44.539Z,94496.00
2023-12-20T07:58:50.841Z,94492.00
2023-12-20T07:59:45.528Z,94490.00
2023-12-20T08:00:44.334Z,94488.00
2023-12-20T08:01:44.406Z,94491.00
2023-12-20T08:02:44.303Z,94494.00
2023-12-20T08:03:44.367Z,94494.00
2023-12-20T08:04:44.435Z,94493.00
2023-12-20T08:05:44.303Z,94490.00
2023-12-20T08:06:44.446Z,94488.00
2023-12-20T08:07:44.539Z,94488.00
2023-12-20T08:08:45.556Z,94484.00
2023-12-20T08:09:44.477Z,94481.00
2023-12-20T08:10:44.306Z,94485.00
2023-12-20T08:11:44.324Z,94489.00
2023-12-20T08:12:44.356Z,94492.00
2023-12-20T08:13:44.304Z,94493.00
2023-12-20T08:14:44.582Z,94497.00
2023-12-20T08:15:44.423Z,94500.00
2023-12-20T08:16:44.350Z,94505.00
2023-12-20T08:17:44.676Z,94511.00
2023-12-20T08:18:44.449Z,94512.00
2023-12-20T08:19:44.497Z,94517.00
2023-12-20T08:20:44.396Z,94517.00
2023-12-20T08:21:44.459Z,94521.00
2023-12-20T08:22:44.315Z,94521.00
2023-12-20T08:23:44.325Z,94522.00
2023-12-20T08:24:44.385Z,94522.00
2023-12-20T08:25:44.341Z,94521.00
2023-12-20T08:26:44.329Z,94524.00
2023-12-20T08:27:44.816Z,94520.00
2023-12-20T08:28:44.366Z,94520.00
2023-12-20T08:29:44.408Z,94519.00
2023-12-20T08:30:44.553Z,94516.00
2023-12-20T08:31:44.363Z,94512.00
2023-12-20T08:32:44.374Z,94510.00
2023-12-20T08:33:44.487Z,94512.00
2023-12-20T08:34:44.595Z,94516.00
2023-12-20T08:35:44.350Z,94521.00
2023-12-20T08:36:44.351Z,94523.00
2023-12-20T08:37:44.496Z,94526.00
2023-12-20T08:38:44.373Z,94529.00
2023-12-20T08:39:46.099Z,94531.00
2023-12-20T08:40:44.365Z,94532.00
2023-12-20T08:41:44.388Z,94533.00
2023-12-20T08:42:44.475Z,94534.00
2023-12-20T08:43:44.457Z,94537.00
2023-12-20T08:44:44.557Z,94536.00
2023-12-20T08:45:44.506Z,94537.00
2023-12-20T08:46:44.506Z,94539.00
2023-12-20T08:47:44.912Z,94540.00
2023-12-20T08:48:44.897Z,94541.00
2023-12-20T08:49:45.538Z,94546.00
2023-12-20T08:50:44.773Z,94542.00
2023-12-20T08:51:44.820Z,94540.00
2023-12-20T08:52:45.307Z,94536.00
2023-12-20T08:53:44.704Z,94537.00
2023-12-20T08:54:45.749Z,94539.00
2023-12-20T08:55:44.750Z,94539.00
2023-12-20T08:56:45.539Z,94544.00
2023-12-20T08:57:45.019Z,94539.00
2023-12-20T08:58:44.840Z,94537.00
2023-12-20T08:59:44.868Z,94535.00
2023-12-20T09:00:44.993Z,94535.00
2023-12-20T09:02:07.157Z,94534.00
2023-12-20T09:02:44.914Z,94537.00
2023-12-20T09:03:45.204Z,94536.00
2023-12-20T09:04:45.033Z,94534.00
2023-12-20T09:05:44.921Z,94531.00
2023-12-20T09:06:44.976Z,94529.00
2023-12-20T09:07:45.301Z,94528.00
2023-12-20T09:08:44.937Z,94528.00
2023-12-20T09:09:44.957Z,94526.00
2023-12-20T09:12:31.088Z,94524.00
2023-12-20T09:13:08.376Z,94525.00
2023-12-20T09:14:08.332Z,94530.00
2023-12-20T09:15:08.295Z,94535.00
2023-12-20T09:16:08.341Z,94537.00
2023-12-20T09:17:08.310Z,94540.00
2023-12-20T09:18:08.352Z,94543.00
2023-12-20T09:19:08.463Z,94544.00
2023-12-20T09:20:08.520Z,94548.00
2023-12-20T09:21:08.298Z,94550.00
2023-12-20T09:22:08.333Z,94552.00
2023-12-20T09:23:08.325Z,94554.00
2023-12-20T09:24:09.218Z,94553.00
2023-12-20T09:25:08.342Z,94552.00
2023-12-20T09:26:08.353Z,94553.00
2023-12-20T09:27:08.309Z,94549.00
2023-12-20T09:28:08.318Z,94546.00
2023-12-20T09:29:08.405Z,94547.00
2023-12-20T09:30:08.476Z,94550.00
2023-12-20T09:31:08.531Z,94552.00
2023-12-20T09:32:08.548Z,94553.00
2023-12-20T09:33:08.759Z,94553.00
2023-12-20T09:34:08.777Z,94552.00
2023-12-20T09:35:08.839Z,94553.00
2023-12-20T09:36:08.811Z,94551.00
2023-12-20T09:37:08.902Z,94551.00
2023-12-20T09:38:08.875Z,94551.00
2023-12-20T09:39:08.900Z,94550.00
2023-12-20T09:40:09.001Z,94550.00
2023-12-20T09:41:08.966Z,94555.00
2023-12-20T09:42:09.012Z,94554.00
2023-12-20T09:43:09.093Z,94556.00
2023-12-20T09:44:09.165Z,94553.00
2023-12-20T09:45:09.151Z,94552.00
2023-12-20T09:46:09.400Z,94549.00
2023-12-20T09:47:09.280Z,94547.00
2023-12-20T09:48:09.359Z,94549.00
2023-12-20T09:49:09.459Z,94548.00
2023-12-20T09:50:09.490Z,94547.00
2023-12-20T09:51:09.476Z,94547.00
2023-12-20T09:52:09.566Z,94544.00
2023-12-20T09:53:09.602Z,94544.00
2023-12-20T09:54:09.676Z,94547.00
2023-12-20T09:55:09.762Z,94545.00
2023-12-20T09:56:09.774Z,94546.00
2023-12-20T09:57:09.814Z,94544.00
2023-12-20T09:58:09.949Z,94540.00
2023-12-20T09:59:10.041Z,94534.00
2023-12-20T10:00:09.984Z,94536.00
2023-12-20T10:01:10.117Z,94535.00
2023-12-20T10:02:10.205Z,94535.00
2023-12-20T10:03:10.144Z,94538.00
2023-12-20T10:04:11.627Z,94536.00
2023-12-20T10:05:10.472Z,94536.00
2023-12-20T10:06:10.387Z,94530.00
2023-12-20T10:07:33.274Z,94528.00
2023-12-20T10:08:10.362Z,94522.00
2023-12-20T10:09:10.502Z,94519.00
2023-12-20T10:10:10.286Z,94518.00
2023-12-20T10:11:10.225Z,94516.00
2023-12-20T10:12:10.260Z,94514.00
2023-12-20T10:13:11.166Z,94514.00
2023-12-20T10:14:10.505Z,94516.00
2023-12-20T10:15:11.111Z,94512.00
2023-12-20T10:16:10.509Z,94509.00
2023-12-20T10:17:10.550Z,94503.00
2023-12-20T10:18:10.722Z,94503.00
2023-12-20T10:19:10.838Z,94501.00
2023-12-20T10:20:10.767Z,94499.00
2023-12-20T10:21:10.714Z,94496.00
2023-12-20T10:22:10.800Z,94493.00
2023-12-20T10:23:10.815Z,94487.00
2023-12-20T10:24:10.901Z,94488.00
2023-12-20T10:25:10.965Z,94485.00
2023-12-20T10:26:11.264Z,94486.00
2023-12-20T10:27:11.021Z,94485.00
2023-12-20T10:28:11.087Z,94479.00
2023-12-20T10:29:11.139Z,94477.00
2023-12-20T10:30:11.239Z,94477.00
2023-12-20T10:31:11.335Z,94467.00
2023-12-20T10:32:11.284Z,94465.00
2023-12-20T10:33:11.813Z,94460.00
2023-12-20T10:34:11.494Z,94465.00
2023-12-20T10:35:11.521Z,94467.00
2023-12-20T10:36:11.528Z,94465.00
2023-12-20T10:37:11.524Z,94467.00
2023-12-20T10:38:11.578Z,94463.00
2023-12-20T10:39:11.626Z,94462.00
2023-12-20T10:40:11.862Z,94458.00
2023-12-20T10:41:11.736Z,94457.00
2023-12-20T10:42:11.812Z,94454.00
2023-12-20T10:43:11.936Z,94456.00
2023-12-20T10:44:11.973Z,94457.00
2023-12-20T10:45:12.032Z,94456.00
2023-12-20T10:46:12.115Z,94453.00
2023-12-20T10:47:12.119Z,94452.00
2023-12-20T10:48:12.437Z,94454.00
2023-12-20T10:49:12.338Z,94453.00
2023-12-20T10:50:12.442Z,94452.00
2023-12-20T10:51:12.371Z,94448.00
2023-12-20T10:52:12.397Z,94449.00
2023-12-20T10:53:12.518Z,94446.00
2023-12-20T10:54:12.483Z,94447.00
2023-12-20T10:55:12.570Z,94444.00
2023-12-20T10:56:12.580Z,94446.00
2023-12-20T10:57:12.640Z,94443.00
2023-12-20T10:58:12.712Z,94446.00
2023-12-20T10:59:12.872Z,94444.00
2023-12-20T11:00:12.793Z,94442.00
2023-12-20T11:01:12.935Z,94439.00
2023-12-20T11:02:13.081Z,94439.00
2023-12-20T11:03:12.947Z,94438.00
2023-12-20T11:04:13.149Z,94438.00
2023-12-20T11:05:13.229Z,94436.00
2023-12-20T11:06:13.146Z,94435.00
2023-12-20T11:07:13.221Z,94435.00
2023-12-20T11:08:13.206Z,94436.00
2023-12-20T11:09:13.462Z,94437.00
2023-12-20T11:10:13.349Z,94439.00
2023-12-20T11:11:13.370Z,94437.00
2023-12-20T11:12:13.425Z,94431.00
2023-12-20T11:13:13.818Z,94428.00
2023-12-20T11:14:13.561Z,94426.00
2023-12-20T11:15:13.576Z,94426.00
2023-12-20T11:16:13.658Z,94425.00
2023-12-20T11:17:13.747Z,94428.00
2023-12-20T11:18:13.770Z,94429.00
2023-12-20T11:19:13.853Z,94426.00
2023-12-20T11:20:13.950Z,94426.00
2023-12-20T11:21:13.855Z,94424.00
2023-12-20T11:22:13.955Z,94425.00
2023-12-20T11:23:36.699Z,94424.00
2023-12-20T11:24:13.967Z,94424.00
2023-12-20T11:25:14.192Z,94423.00
2023-12-20T11:26:13.948Z,94424.00
2023-12-20T11:27:13.964Z,94423.00
2023-12-20T11:28:13.986Z,94422.00
2023-12-20T11:29:13.978Z,94420.00
2023-12-20T11:30:13.961Z,94419.00
2023-12-20T11:31:36.038Z,94420.00
2023-12-20T11:32:13.936Z,94423.00
2023-12-20T11:33:13.982Z,94419.00
2023-12-20T11:34:14.108Z,94419.00
2023-12-20T11:35:14.038Z,94416.00
2023-12-20T11:36:13.994Z,94412.00
2023-12-20T11:37:14.063Z,94413.00
2023-12-20T11:38:14.016Z,94415.00
2023-12-20T11:39:14.148Z,94414.00
2023-12-20T11:40:14.028Z,94416.00
2023-12-20T11:41:13.965Z,94413.00
2023-12-20T11:42:13.963Z,94407.00
2023-12-20T11:43:13.984Z,94406.00
2023-12-20T11:44:14.040Z,94404.00
2023-12-20T11:45:13.971Z,94400.00
2023-12-20T11:46:13.974Z,94402.00
2023-12-20T11:47:15.911Z,94398.00
2023-12-20T11:48:14.037Z,94398.00
2023-12-20T11:49:14.265Z,94396.00
2023-12-20T11:50:14.054Z,94398.00
2023-12-20T11:51:14.098Z,94399.00
2023-12-20T11:52:14.032Z,94397.00
2023-12-20T11:53:13.990Z,94399.00
2023-12-20T11:54:14.060Z,94399.00
2023-12-20T11:55:14.021Z,94403.00
2023-12-20T11:56:13.997Z,94404.00
2023-12-20T11:57:14.013Z,94403.00
2023-12-20T11:58:14.094Z,94400.00
2023-12-20T11:59:22.730Z,94398.00
2023-12-20T12:00:15.070Z,94393.00
2023-12-20T12:01:14.155Z,94389.00
2023-12-20T12:02:14.153Z,94386.00
2023-12-20T12:03:14.092Z,94383.00
2023-12-20T12:04:14.188Z,94383.00
2023-12-20T12:05:14.166Z,94380.00
2023-12-20T12:06:14.120Z,94383.00
2023-12-20T12:07:14.140Z,94382.00
2023-12-20T12:08:14.912Z,94384.00
2023-12-20T12:09:14.177Z,94388.00
2023-12-20T12:10:14.164Z,94389.00
2023-12-20T12:11:14.105Z,94390.00
2023-12-20T12:12:14.631Z,94390.00
2023-12-20T12:13:14.193Z,94388.00
2023-12-20T12:14:14.970Z,94382.00
2023-12-20T12:15:14.165Z,94383.00
2023-12-20T12:16:14.380Z,94382.00
2023-12-20T12:17:14.286Z,94381.00
2023-12-20T12:18:14.306Z,94381.00
2023-12-20T12:19:14.315Z,94384.00
2023-12-20T12:20:14.392Z,94382.00
2023-12-20T12:21:18.968Z,94380.00
2023-12-20T12:22:16.133Z,94384.00
2023-12-20T12:23:14.350Z,94384.00
2023-12-20T12:24:14.360Z,94384.00
2023-12-20T12:25:14.413Z,94385.00
2023-12-20T12:26:14.668Z,94385.00
2023-12-20T12:27:14.356Z,94385.00
2023-12-20T12:28:14.428Z,94382.00
2023-12-20T12:29:14.480Z,94379.00
2023-12-20T12:30:14.470Z,94377.00
2023-12-20T12:31:14.399Z,94372.00
2023-12-20T12:32:14.497Z,94369.00
2023-12-20T12:33:14.500Z,94368.00
2023-12-20T12:34:14.559Z,94367.00
2023-12-20T12:35:14.466Z,94364.00
2023-12-20T12:36:14.608Z,94363.00
2023-12-20T12:37:14.558Z,94360.00
2023-12-20T12:38:15.197Z,94354.00
2023-12-20T12:39:14.596Z,94352.00
2023-12-20T12:40:14.696Z,94351.00
2023-12-20T12:41:14.754Z,94350.00
2023-12-20T12:42:14.676Z,94352.00
2023-12-20T12:43:14.738Z,94352.00
2023-12-20T12:44:18.011Z,94353.00
2023-12-20T12:45:14.779Z,94351.00
2023-12-20T12:46:14.810Z,94348.00
2023-12-20T12:47:14.778Z,94348.00
2023-12-20T12:48:14.815Z,94342.00
2023-12-20T12:49:14.903Z,94340.00
2023-12-20T12:50:14.842Z,94340.00
2023-12-20T12:51:15.005Z,94341.00
2023-12-20T12:52:14.788Z,94342.00
2023-12-20T12:53:14.776Z,94342.00
2023-12-20T12:54:14.781Z,94341.00
2023-12-20T12:55:14.852Z,94339.00
2023-12-20T12:56:14.887Z,94339.00
2023-12-20T12:57:14.799Z,94338.00
2023-12-20T12:58:14.911Z,94336.00
2023-12-20T12:59:14.792Z,94339.00
2023-12-20T13:00:14.786Z,94340.00
2023-12-20T13:01:14.846Z,94338.00
2023-12-20T13:02:14.966Z,94339.00
2023-12-20T13:03:14.798Z,94336.00
2023-12-20T13:04:14.921Z,94335.00
2023-12-20T13:05:15.097Z,94330.00
2023-12-20T13:06:14.821Z,94331.00
2023-12-20T13:07:14.890Z,94330.00
2023-12-20T13:08:14.798Z,94329.00
2023-12-20T13:09:14.911Z,94329.00
2023-12-20T13:10:14.820Z,94328.00
2023-12-20T13:11:14.826Z,94326.00
2023-12-20T13:12:14.812Z,94327.00
2023-12-20T13:13:14.862Z,94323.00
2023-12-20T13:14:14.912Z,94322.00
2023-12-20T13:15:14.918Z,94325.00
2023-12-20T13:16:14.833Z,94327.00
2023-12-20T13:17:14.815Z,94328.00
2023-12-20T13:18:14.935Z,94328.00
2023-12-20T13:19:15.149Z,94327.00
2023-12-20T13:20:14.873Z,94330.00
2023-12-20T13:21:14.828Z,94329.00
2023-12-20T13:22:14.902Z,94328.00
2023-12-20T13:23:14.843Z,94328.00
2023-12-20T13:24:14.813Z,94323.00
2023-12-20T13:25:14.879Z,94320.00
2023-12-20T13:26:14.813Z,94320.00
2023-12-20T13:27:14.822Z,94318.00
2023-12-20T13:28:14.935Z,94324.00
2023-12-20T13:29:14.844Z,94325.00
2023-12-20T13:30:14.929Z,94323.00
2023-12-20T13:31:14.911Z,94323.00
2023-12-20T13:32:14.944Z,94322.00
2023-12-20T13:33:14.845Z,94323.00
2023-12-20T13:34:15.038Z,94319.00
2023-12-20T13:35:14.965Z,94317.00
2023-12-20T13:36:14.876Z,94311.00
2023-12-20T13:37:14.878Z,94310.00
2023-12-20T13:38:14.838Z,94312.00
2023-12-20T13:39:14.929Z,94312.00
2023-12-20T13:40:14.975Z,94316.00
2023-12-20T13:41:14.966Z,94317.00
2023-12-20T13:42:15.007Z,94321.00
2023-12-20T13:43:15.269Z,94322.00
2023-12-20T13:44:15.176Z,94321.00
2023-12-20T13:45:15.161Z,94320.00
2023-12-20T13:46:15.282Z,94321.00
2023-12-20T13:47:15.221Z,94325.00
2023-12-20T13:48:15.281Z,94325.00
2023-12-20T13:49:15.565Z,94328.00
2023-12-20T13:50:15.356Z,94329.00
2023-12-20T13:51:15.418Z,94329.00
2023-12-20T13:52:15.496Z,94329.00
2023-12-20T13:53:15.476Z,94332.00
2023-12-20T13:54:15.576Z,94331.00
2023-12-20T13:55:15.688Z,94328.00
2023-12-20T13:56:15.647Z,94331.00
2023-12-20T13:57:22.168Z,94332.00
2023-12-20T13:58:16.739Z,94337.00
2023-12-20T13:59:15.824Z,94339.00
2023-12-20T14:00:16.126Z,94340.00
2023-12-20T14:01:15.755Z,94345.00
2023-12-20T14:02:15.707Z,94345.00
2023-12-20T14:03:15.695Z,94348.00
2023-12-20T14:04:40.260Z,94347.00
2023-12-20T14:05:16.887Z,94347.00
2023-12-20T14:06:15.706Z,94347.00
2023-12-20T14:07:15.787Z,94349.00
2023-12-20T14:08:15.773Z,94350.00
2023-12-20T14:09:15.829Z,94352.00
2023-12-20T14:10:15.752Z,94350.00
2023-12-20T14:11:15.718Z,94349.00
2023-12-20T14:12:15.778Z,94349.00
2023-12-20T14:13:15.797Z,94348.00
2023-12-20T14:14:15.811Z,94351.00
2023-12-20T14:15:15.934Z,94352.00
2023-12-20T14:16:15.962Z,94354.00
2023-12-20T14:17:15.964Z,94356.00
2023-12-20T14:18:16.078Z,94355.00
2023-12-20T14:19:16.226Z,94352.00
2023-12-20T14:20:16.170Z,94354.00
2023-12-20T14:21:16.199Z,94351.00
2023-12-20T14:22:16.327Z,94354.00
2023-12-20T14:23:16.331Z,94356.00
2023-12-20T14:24:16.394Z,94357.00
2023-12-20T14:25:16.583Z,94357.00
2023-12-20T14:26:16.497Z,94358.00
2023-12-20T14:27:16.541Z,94357.00
2023-12-20T14:28:16.651Z,94356.00
2023-12-20T14:29:16.808Z,94355.00
2023-12-20T14:30:16.759Z,94356.00
2023-12-20T14:31:16.808Z,94356.00
2023-12-20T14:32:16.873Z,94354.00
2023-12-20T14:33:16.936Z,94355.00
2023-12-20T14:34:17.120Z,94357.00
2023-12-20T14:35:17.248Z,94359.00
2023-12-20T14:36:17.129Z,94359.00
2023-12-20T14:37:17.214Z,94359.00
2023-12-20T14:38:17.254Z,94358.00
2023-12-20T14:39:17.390Z,94361.00
2023-12-20T14:40:17.457Z,94359.00
2023-12-20T14:41:17.416Z,94360.00
2023-12-20T14:42:17.538Z,94357.00
2023-12-20T14:43:17.572Z,94358.00
2023-12-20T14:44:17.766Z,94358.00
2023-12-20T14:45:17.676Z,94361.00
2023-12-20T14:46:17.766Z,94365.00
2023-12-20T14:47:17.813Z,94371.00
2023-12-20T14:48:17.908Z,94375.00
2023-12-20T14:49:18.089Z,94374.00
2023-12-20T14:50:18.058Z,94369.00
2023-12-20T14:51:18.059Z,94366.00
2023-12-20T14:52:18.223Z,94366.00
2023-12-20T14:53:19.502Z,94361.00
2023-12-20T14:54:18.266Z,94369.00
2023-12-20T14:55:18.491Z,94374.00
2023-12-20T14:56:18.200Z,94375.00
2023-12-20T14:57:18.213Z,94378.00
2023-12-20T14:58:18.389Z,94376.00
2023-12-20T14:59:18.210Z,94375.00
2023-12-20T15:00:18.329Z,94374.00
2023-12-20T15:01:18.371Z,94373.00
2023-12-20T15:02:18.292Z,94375.00
2023-12-20T15:03:18.369Z,94377.00
2023-12-20T15:04:20.521Z,94379.00
2023-12-20T15:05:18.221Z,94378.00
2023-12-20T15:06:18.319Z,94380.00
2023-12-20T15:07:18.240Z,94379.00
2023-12-20T15:08:18.299Z,94384.00
2023-12-20T15:09:18.225Z,94386.00
2023-12-20T15:10:18.321Z,94389.00
2023-12-20T15:11:18.224Z,94387.00
2023-12-20T15:12:18.241Z,94387.00
2023-12-20T15:13:18.264Z,94386.00
2023-12-20T15:14:18.245Z,94390.00
2023-12-20T15:15:18.222Z,94395.00
2023-12-20T15:16:18.277Z,94390.00
2023-12-20T15:17:18.236Z,94392.00
2023-12-20T15:18:18.358Z,94397.00
2023-12-20T15:19:18.365Z,94397.00
2023-12-20T15:20:18.290Z,94399.00
2023-12-20T15:21:18.241Z,94397.00
2023-12-20T15:22:18.254Z,94395.00
2023-12-20T15:23:18.351Z,94389.00
2023-12-20T15:24:18.260Z,94389.00
2023-12-20T15:25:18.244Z,94391.00
2023-12-20T15:26:18.237Z,94388.00
2023-12-20T15:27:18.255Z,94389.00
2023-12-20T15:28:18.316Z,94391.00
2023-12-20T15:29:18.238Z,94391.00
2023-12-20T15:30:18.290Z,94390.00
2023-12-20T15:31:18.321Z,94391.00
2023-12-20T15:32:18.256Z,94388.00
2023-12-20T15:33:18.374Z,94389.00
2023-12-20T15:34:18.377Z,94388.00
2023-12-20T15:35:18.487Z,94389.00
2023-12-20T15:36:18.474Z,94391.00
2023-12-20T15:37:18.634Z,94393.00
2023-12-20T15:38:18.819Z,94392.00
2023-12-20T15:39:18.680Z,94390.00
2023-12-20T15:40:18.804Z,94391.00
2023-12-20T15:41:18.799Z,94389.00
2023-12-20T15:42:18.867Z,94392.00
2023-12-20T15:43:18.977Z,94395.00
2023-12-20T15:44:18.974Z,94393.00